Time;durP1;ratioP1;P1;durP2;ratioP2;P2;SDS_P1;SDS_P2;PMS_P1;PMS_P2;Temp;Humidity;BMP_temperature;BMP_pressure;BME280_temperature;BME280_humidity;BME280_pressure;Samples;Min_cycle;Max_cycle;Signal;HPM_P1;HPM_P2
2022/03/05 00:01:26;;;;;;;30.13;19.55;;;10.90;53.80;;;;;;5094385;28;20403;-63
2022/03/05 00:03:51;;;;;;;27.33;18.73;;;11.00;53.80;;;;;;5094355;28;20024;-63
2022/03/05 00:06:17;;;;;;;27.20;19.15;;;10.90;53.90;;;;;;5092900;28;20093;-63
2022/03/05 00:08:42;;;;;;;25.95;18.92;;;10.90;54.00;;;;;;5089551;28;20477;-63
2022/03/05 00:11:08;;;;;;;28.40;19.45;;;10.80;54.20;;;;;;5092258;28;20028;-63
2022/03/05 00:13:36;;;;;;;22.95;18.20;;;10.80;54.40;;;;;;5094154;28;20035;-62
2022/03/05 00:16:02;;;;;;;24.30;18.55;;;10.80;54.60;;;;;;5094413;28;20465;-63
2022/03/05 00:18:28;;;;;;;24.15;17.35;;;10.80;54.60;;;;;;5094359;28;20078;-60
2022/03/05 00:20:54;;;;;;;26.88;18.95;;;10.70;54.60;;;;;;5093849;28;20032;-62
2022/03/05 00:23:20;;;;;;;25.35;19.58;;;10.70;54.60;;;;;;5075999;28;20028;-61
2022/03/05 00:25:46;;;;;;;29.77;19.25;;;10.70;54.80;;;;;;5094186;28;20446;-62
2022/03/05 00:28:12;;;;;;;25.88;18.95;;;10.70;55.00;;;;;;5094072;28;20030;-61
2022/03/05 00:30:38;;;;;;;27.15;17.73;;;10.70;54.90;;;;;;5093801;28;20103;-62
2022/03/05 00:33:04;;;;;;;27.83;19.73;;;10.60;55.00;;;;;;5094434;28;20240;-62
2022/03/05 00:35:30;;;;;;;26.20;19.00;;;10.60;55.00;;;;;;5076121;28;20036;-63
2022/03/05 00:37:56;;;;;;;26.17;18.75;;;10.60;55.10;;;;;;5093299;28;20032;-63
2022/03/05 00:40:21;;;;;;;26.45;18.60;;;10.60;55.30;;;;;;5094227;28;20389;-63
2022/03/05 00:42:47;;;;;;;23.42;18.17;;;10.60;55.30;;;;;;5094009;28;20028;-62
2022/03/05 00:45:13;;;;;;;24.48;18.27;;;10.50;55.40;;;;;;5094340;28;20051;-62
2022/03/05 00:47:39;;;;;;;27.25;18.10;;;10.50;55.60;;;;;;5093552;28;20039;-60
2022/03/05 00:50:07;;;;;;;22.50;17.83;;;10.50;56.30;;;;;;5075460;28;20444;-61
2022/03/05 00:52:33;;;;;;;24.88;18.17;;;10.50;56.20;;;;;;5093023;28;20024;-62
2022/03/05 00:54:59;;;;;;;21.30;16.98;;;10.50;55.90;;;;;;5093811;28;20024;-61
2022/03/05 00:57:24;;;;;;;25.80;18.67;;;10.40;55.90;;;;;;5093845;28;20028;-61
2022/03/05 00:59:50;;;;;;;29.05;19.08;;;10.40;56.00;;;;;;5093753;28;20031;-60
2022/03/05 01:02:16;;;;;;;25.48;18.30;;;10.40;56.00;;;;;;5093708;28;20047;-60
2022/03/05 01:04:41;;;;;;;24.42;18.02;;;10.30;56.20;;;;;;5093540;28;20078;-60
2022/03/05 01:07:07;;;;;;;24.92;18.52;;;10.30;56.30;;;;;;5093732;28;20028;-59
2022/03/05 01:09:32;;;;;;;24.33;18.17;;;10.30;56.20;;;;;;5093280;28;20458;-60
2022/03/05 01:11:58;;;;;;;25.45;17.25;;;10.30;56.40;;;;;;5093382;28;20103;-60
2022/03/05 01:14:24;;;;;;;23.52;18.38;;;10.20;56.40;;;;;;5093050;28;20404;-62
2022/03/05 01:16:49;;;;;;;22.60;17.52;;;10.20;56.30;;;;;;5093268;28;20059;-61
2022/03/05 01:19:15;;;;;;;24.15;17.05;;;10.20;56.40;;;;;;5093452;28;20028;-60
2022/03/05 01:21:41;;;;;;;27.27;18.67;;;10.20;56.40;;;;;;5093089;28;20024;-62
2022/03/05 01:24:06;;;;;;;24.88;18.08;;;10.20;56.60;;;;;;5093537;28;20080;-62
2022/03/05 01:26:32;;;;;;;29.65;17.92;;;10.20;56.70;;;;;;5091678;28;20073;-62
2022/03/05 01:28:58;;;;;;;27.77;17.83;;;10.10;56.70;;;;;;5092442;28;20107;-62
2022/03/05 01:31:23;;;;;;;26.98;18.70;;;10.20;56.80;;;;;;5092759;28;20028;-62
2022/03/05 01:33:49;;;;;;;23.95;18.05;;;10.10;56.80;;;;;;5092275;28;20460;-62
2022/03/05 01:36:15;;;;;;;27.00;17.88;;;10.10;57.20;;;;;;5092762;28;20508;-63
2022/03/05 01:38:41;;;;;;;27.65;19.33;;;10.10;57.20;;;;;;5092921;28;20024;-62
2022/03/05 01:41:06;;;;;;;27.75;19.23;;;10.00;57.30;;;;;;5092427;28;20032;-61
2022/03/05 01:43:32;;;;;;;32.53;20.25;;;10.00;57.50;;;;;;5092781;28;20484;-60
2022/03/05 01:45:58;;;;;;;24.95;18.70;;;10.00;57.50;;;;;;5093267;28;20342;-60
2022/03/05 01:48:23;;;;;;;28.77;19.38;;;10.00;57.60;;;;;;5092397;28;20097;-60
2022/03/05 01:50:49;;;;;;;26.33;17.63;;;10.00;58.40;;;;;;5074392;28;20623;-60
2022/03/05 01:53:15;;;;;;;25.58;17.00;;;9.90;57.90;;;;;;5092597;28;20016;-60
2022/03/05 01:55:42;;;;;;;24.55;17.33;;;9.90;57.90;;;;;;5092733;28;20024;-62
2022/03/05 01:58:08;;;;;;;24.67;18.55;;;9.90;57.90;;;;;;5093111;28;20023;-61
2022/03/05 02:00:34;;;;;;;24.63;17.73;;;9.80;58.00;;;;;;5092845;28;20029;-61
2022/03/05 02:02:59;;;;;;;25.75;17.60;;;9.80;58.10;;;;;;5092676;28;20055;-62
2022/03/05 02:05:25;;;;;;;23.73;17.45;;;9.80;58.00;;;;;;5092695;28;20054;-62
2022/03/05 02:07:50;;;;;;;26.50;18.85;;;9.80;58.30;;;;;;5092879;28;20461;-62
2022/03/05 02:10:16;;;;;;;23.35;17.50;;;9.70;58.20;;;;;;5092241;28;20040;-61
2022/03/05 02:12:42;;;;;;;24.05;17.60;;;9.70;58.30;;;;;;5092769;28;20027;-61
2022/03/05 02:15:08;;;;;;;25.38;17.08;;;9.70;58.50;;;;;;5092199;28;20082;-60
2022/03/05 02:17:35;;;;;;;22.63;16.90;;;9.70;58.50;;;;;;5093153;28;20073;-60
2022/03/05 02:20:02;;;;;;;21.85;17.95;;;9.70;58.60;;;;;;5092001;28;20024;-60
2022/03/05 02:22:27;;;;;;;22.23;16.40;;;9.60;58.60;;;;;;5092675;28;20028;-61
2022/03/05 02:24:55;;;;;;;25.00;17.25;;;9.60;58.80;;;;;;5092351;28;20039;-61
2022/03/05 02:27:23;;;;;;;24.13;18.20;;;9.60;58.80;;;;;;5092881;28;20536;-60
2022/03/05 02:29:50;;;;;;;25.08;17.00;;;9.60;58.80;;;;;;5092277;28;20365;-61
2022/03/05 02:32:15;;;;;;;22.27;17.58;;;9.50;58.80;;;;;;5092369;28;20107;-61
2022/03/05 02:34:41;;;;;;;24.23;17.42;;;9.60;59.10;;;;;;5091950;28;20123;-60
2022/03/05 02:37:11;;;;;;;27.75;18.25;;;9.60;59.10;;;;;;5091988;28;20354;-62
2022/03/05 02:39:37;;;;;;;25.23;18.25;;;9.50;59.10;;;;;;5092258;28;20487;-61
2022/03/05 02:42:03;;;;;;;25.55;17.48;;;9.50;59.20;;;;;;5091533;28;20036;-60
2022/03/05 02:44:29;;;;;;;26.30;18.52;;;9.40;59.20;;;;;;5092648;28;20371;-60
2022/03/05 02:46:55;;;;;;;26.73;18.20;;;9.40;59.40;;;;;;5096079;28;20028;-60
2022/03/05 02:49:21;;;;;;;28.17;19.55;;;9.40;59.50;;;;;;5095487;28;20124;-60
2022/03/05 02:51:47;;;;;;;25.27;18.10;;;9.40;59.60;;;;;;5096178;28;20099;-60
2022/03/05 02:54:12;;;;;;;26.33;17.95;;;9.40;59.70;;;;;;5096108;28;20380;-60
2022/03/05 02:56:38;;;;;;;24.25;18.33;;;9.30;59.90;;;;;;5095917;28;20032;-60
2022/03/05 02:59:04;;;;;;;22.65;17.17;;;9.30;59.90;;;;;;5095203;28;20063;-60
2022/03/05 03:01:29;;;;;;;28.13;17.48;;;9.20;60.00;;;;;;5095782;28;20035;-60
2022/03/05 03:03:55;;;;;;;25.75;17.90;;;9.20;60.10;;;;;;5095096;28;20051;-60
2022/03/05 03:06:20;;;;;;;28.60;17.50;;;9.20;60.10;;;;;;5096217;28;20032;-60
2022/03/05 03:08:46;;;;;;;21.88;15.88;;;9.20;60.20;;;;;;5095671;28;20024;-60
2022/03/05 03:11:11;;;;;;;23.17;16.55;;;9.10;60.20;;;;;;5095707;28;20089;-61
2022/03/05 03:13:37;;;;;;;22.88;16.98;;;9.10;60.30;;;;;;5095874;28;20077;-60
2022/03/05 03:16:04;;;;;;;27.88;18.13;;;9.10;60.50;;;;;;5095957;28;20028;-60
2022/03/05 03:18:30;;;;;;;25.73;18.65;;;9.10;60.40;;;;;;5077209;28;20027;-60
2022/03/05 03:20:55;;;;;;;24.15;17.67;;;9.10;60.40;;;;;;5095188;28;20032;-60
2022/03/05 03:23:21;;;;;;;23.55;16.30;;;9.10;60.50;;;;;;5094991;28;20024;-60
2022/03/05 03:25:46;;;;;;;22.20;15.65;;;9.00;60.70;;;;;;5095256;28;20197;-60
2022/03/05 03:28:12;;;;;;;23.77;16.48;;;9.00;60.70;;;;;;5095464;28;20036;-61
2022/03/05 03:30:37;;;;;;;22.20;17.27;;;8.90;60.80;;;;;;5094876;28;20047;-62
2022/03/05 03:33:03;;;;;;;25.63;16.98;;;9.00;60.90;;;;;;5095114;28;20028;-62
2022/03/05 03:35:29;;;;;;;24.98;16.80;;;8.90;60.80;;;;;;5094825;28;20108;-62
2022/03/05 03:37:54;;;;;;;21.90;16.15;;;8.90;61.10;;;;;;5095490;28;20032;-63
2022/03/05 03:40:20;;;;;;;26.70;17.17;;;8.90;61.00;;;;;;5094936;28;20519;-62
2022/03/05 03:42:49;;;;;;;22.88;17.08;;;8.90;61.10;;;;;;5094941;28;20020;-62
2022/03/05 03:45:15;;;;;;;23.23;16.67;;;8.80;61.20;;;;;;5095233;28;20073;-60
2022/03/05 03:47:43;;;;;;;27.95;17.23;;;8.80;61.30;;;;;;5095016;28;20024;-61
2022/03/05 03:50:13;;;;;;;24.42;16.50;;;8.80;61.30;;;;;;5094653;28;20381;-62
2022/03/05 03:52:39;;;;;;;21.58;15.40;;;8.70;61.40;;;;;;5094759;28;20492;-61
2022/03/05 03:55:07;;;;;;;24.48;16.27;;;8.70;61.70;;;;;;5094700;28;20028;-63
2022/03/05 03:57:32;;;;;;;20.63;16.10;;;8.80;62.00;;;;;;5093917;28;20042;-61
2022/03/05 03:59:58;;;;;;;24.38;16.85;;;8.70;61.70;;;;;;5095182;28;20099;-62
2022/03/05 04:02:24;;;;;;;24.92;16.20;;;8.70;61.60;;;;;;5094372;28;20103;-62
2022/03/05 04:04:50;;;;;;;28.90;16.27;;;8.70;61.80;;;;;;5094865;28;20434;-62
2022/03/05 04:10:00;;;;;;;23.27;15.93;;;8.60;61.90;;;;;;5085244;28;20047;-62
2022/03/05 04:12:26;;;;;;;25.15;16.50;;;8.60;62.00;;;;;;5094841;28;20016;-62
2022/03/05 04:14:54;;;;;;;25.35;17.05;;;8.60;62.10;;;;;;5094350;28;20100;-62
2022/03/05 04:17:20;;;;;;;24.85;16.30;;;8.60;62.00;;;;;;5094009;28;20590;-61
2022/03/05 04:19:45;;;;;;;22.13;17.08;;;8.50;62.00;;;;;;5094342;28;20024;-62
2022/03/05 04:22:11;;;;;;;23.92;16.48;;;8.50;62.80;;;;;;5094220;28;20024;-62
2022/03/05 04:24:37;;;;;;;26.60;17.10;;;8.50;62.20;;;;;;5094187;28;20028;-62
2022/03/05 04:27:02;;;;;;;21.58;16.50;;;8.50;62.30;;;;;;5094346;28;20016;-61
2022/03/05 04:29:28;;;;;;;22.83;16.38;;;8.40;62.30;;;;;;5094348;28;20378;-62
2022/03/05 04:31:53;;;;;;;22.65;16.23;;;8.40;62.60;;;;;;5093665;28;20030;-62
2022/03/05 04:34:19;;;;;;;23.52;17.20;;;8.40;62.80;;;;;;5093943;28;20126;-60
2022/03/05 04:36:45;;;;;;;23.33;17.35;;;8.30;62.80;;;;;;5093832;28;20098;-61
2022/03/05 04:39:10;;;;;;;24.02;17.25;;;8.30;62.90;;;;;;5093603;28;20050;-61
2022/03/05 04:41:36;;;;;;;22.38;15.35;;;8.30;63.00;;;;;;5094120;28;20167;-60
2022/03/05 04:44:02;;;;;;;23.23;17.48;;;8.30;63.10;;;;;;5094274;28;20020;-62
2022/03/05 04:46:28;;;;;;;26.88;17.48;;;8.30;63.10;;;;;;5093842;28;20090;-60
2022/03/05 04:48:54;;;;;;;23.42;16.95;;;8.30;63.40;;;;;;5093977;28;20027;-61
2022/03/05 04:51:19;;;;;;;21.65;16.02;;;8.30;63.40;;;;;;5092449;28;20035;-62
2022/03/05 04:53:45;;;;;;;25.35;16.23;;;8.20;63.30;;;;;;5089363;28;20503;-60
2022/03/05 04:56:10;;;;;;;21.77;16.38;;;8.20;63.50;;;;;;5075338;28;20055;-62
2022/03/05 04:58:36;;;;;;;24.15;16.70;;;8.20;63.40;;;;;;5093424;28;20020;-60
2022/03/05 05:01:02;;;;;;;24.52;16.00;;;8.20;63.50;;;;;;5093099;28;20024;-62
2022/03/05 05:03:28;;;;;;;25.50;17.08;;;8.10;63.60;;;;;;5093402;28;20081;-62
2022/03/05 05:05:54;;;;;;;25.90;16.00;;;8.10;63.60;;;;;;5093492;28;20552;-61
2022/03/05 05:08:19;;;;;;;23.65;16.90;;;8.10;63.80;;;;;;5093267;28;20035;-62
2022/03/05 05:10:45;;;;;;;23.38;16.00;;;8.00;63.80;;;;;;5093225;28;20066;-61
2022/03/05 05:13:10;;;;;;;24.15;17.55;;;8.00;64.00;;;;;;5093041;28;20468;-62
2022/03/05 05:15:36;;;;;;;22.92;16.25;;;8.00;64.00;;;;;;5093499;28;20035;-62
2022/03/05 05:18:02;;;;;;;22.73;16.73;;;8.00;64.10;;;;;;5092622;28;20069;-60
2022/03/05 05:20:29;;;;;;;27.55;18.23;;;8.00;64.20;;;;;;5093590;28;20016;-61
2022/03/05 05:22:55;;;;;;;24.95;16.77;;;8.00;64.60;;;;;;5093055;28;20126;-60
2022/03/05 05:25:20;;;;;;;26.35;17.13;;;7.90;64.20;;;;;;5091847;28;20066;-62
2022/03/05 05:27:46;;;;;;;23.63;16.20;;;7.90;64.30;;;;;;5092576;28;20020;-61
2022/03/05 05:30:11;;;;;;;24.35;17.52;;;7.90;64.30;;;;;;5092950;28;20032;-61
2022/03/05 05:32:37;;;;;;;24.58;17.92;;;7.80;64.60;;;;;;5092495;28;20024;-60
2022/03/05 05:35:03;;;;;;;23.33;17.25;;;7.80;64.60;;;;;;5092789;28;20043;-61
2022/03/05 05:37:29;;;;;;;24.33;17.30;;;7.80;64.60;;;;;;5092675;28;20040;-62
2022/03/05 05:39:54;;;;;;;21.42;17.00;;;7.80;64.60;;;;;;5092877;28;20043;-60
2022/03/05 05:42:20;;;;;;;24.60;17.65;;;7.70;64.80;;;;;;5092631;28;20493;-62
2022/03/05 05:44:46;;;;;;;25.70;17.70;;;7.80;65.00;;;;;;5092880;28;20024;-59
2022/03/05 05:47:11;;;;;;;26.08;17.60;;;7.70;65.00;;;;;;5092458;28;20412;-60
2022/03/05 05:49:37;;;;;;;23.63;17.05;;;7.70;65.00;;;;;;5092416;28;20035;-59
2022/03/05 05:52:03;;;;;;;25.98;17.23;;;7.70;65.00;;;;;;5092993;28;20024;-60
2022/03/05 05:54:29;;;;;;;25.38;17.08;;;7.60;65.10;;;;;;5092020;28;20097;-60
2022/03/05 05:56:55;;;;;;;22.13;16.75;;;7.60;65.20;;;;;;5092549;28;20528;-60
2022/03/05 05:59:20;;;;;;;25.83;17.52;;;7.60;65.30;;;;;;5091881;28;20024;-59
2022/03/05 06:01:46;;;;;;;26.05;17.05;;;7.60;65.30;;;;;;5080045;28;20029;-59
2022/03/05 06:04:11;;;;;;;22.90;16.80;;;7.60;65.40;;;;;;5084658;28;20016;-60
2022/03/05 06:06:37;;;;;;;22.73;16.60;;;7.50;65.50;;;;;;5090069;28;20078;-60
2022/03/05 06:09:03;;;;;;;26.10;17.75;;;7.50;65.60;;;;;;5092036;28;20036;-60
2022/03/05 06:11:29;;;;;;;25.45;17.30;;;7.40;65.70;;;;;;5092093;28;20028;-59
2022/03/05 06:13:56;;;;;;;28.95;18.25;;;7.40;65.90;;;;;;5092212;28;20035;-60
2022/03/05 06:16:21;;;;;;;25.83;17.83;;;7.30;65.90;;;;;;5092432;28;20028;-60
2022/03/05 06:18:47;;;;;;;27.25;18.13;;;7.40;65.90;;;;;;5092236;28;20020;-60
2022/03/05 06:21:13;;;;;;;26.52;18.00;;;7.30;66.00;;;;;;5096748;28;20020;-59
2022/03/05 06:23:39;;;;;;;29.42;18.65;;;7.30;66.10;;;;;;5096208;28;20055;-60
2022/03/05 06:26:05;;;;;;;25.92;17.52;;;7.30;66.10;;;;;;5096336;28;20107;-60
2022/03/05 06:28:31;;;;;;;27.10;19.27;;;7.30;66.20;;;;;;5096470;28;20112;-60
2022/03/05 06:30:56;;;;;;;25.35;18.35;;;7.30;66.10;;;;;;5096310;28;20028;-60
2022/03/05 06:33:22;;;;;;;24.85;18.38;;;7.30;66.30;;;;;;5095336;28;20020;-62
2022/03/05 06:35:47;;;;;;;25.70;18.13;;;7.30;66.30;;;;;;5096315;28;20036;-61
2022/03/05 06:38:13;;;;;;;26.92;18.33;;;7.30;66.30;;;;;;5096571;28;20024;-61
2022/03/05 06:40:39;;;;;;;26.80;18.65;;;7.20;66.50;;;;;;5096282;28;20102;-61
2022/03/05 06:43:04;;;;;;;26.60;17.63;;;7.20;66.50;;;;;;5096175;28;20024;-60
2022/03/05 06:45:30;;;;;;;25.88;18.15;;;7.20;66.60;;;;;;5096053;28;20020;-60
2022/03/05 06:47:56;;;;;;;26.23;18.08;;;7.20;66.60;;;;;;5096578;28;20028;-59
2022/03/05 06:50:21;;;;;;;24.67;18.00;;;7.20;66.80;;;;;;5096132;28;20485;-59
2022/03/05 06:52:47;;;;;;;25.48;18.27;;;7.20;66.80;;;;;;5096462;28;20027;-60
2022/03/05 06:55:14;;;;;;;31.25;18.98;;;7.20;67.10;;;;;;5095924;28;20039;-60
2022/03/05 06:57:41;;;;;;;25.70;17.90;;;7.20;67.10;;;;;;5095633;28;20162;-61
2022/03/05 07:00:08;;;;;;;27.45;19.45;;;7.20;67.30;;;;;;5094515;28;20020;-61
2022/03/05 07:02:33;;;;;;;25.75;18.23;;;7.20;67.40;;;;;;5094940;28;20057;-62
2022/03/05 07:04:59;;;;;;;26.25;18.40;;;7.20;67.40;;;;;;5093395;28;20035;-62
2022/03/05 07:07:24;;;;;;;22.88;17.27;;;7.20;68.30;;;;;;5092473;28;20503;-65
2022/03/05 07:09:51;;;;;;;25.15;18.02;;;7.20;69.30;;;;;;5089276;28;20032;-66
2022/03/05 07:12:16;;;;;;;23.33;17.35;;;7.30;69.60;;;;;;5092115;28;20024;-62
2022/03/05 07:14:44;;;;;;;25.48;17.85;;;7.40;69.50;;;;;;5089645;28;20479;-68
2022/03/05 07:17:10;;;;;;;24.52;17.50;;;7.60;68.80;;;;;;5091983;28;20497;-69
2022/03/05 07:19:36;;;;;;;26.92;18.25;;;7.70;68.70;;;;;;5092005;28;20032;-60
2022/03/05 07:22:01;;;;;;;22.75;16.30;;;7.80;68.40;;;;;;5093238;28;20024;-67
2022/03/05 07:24:27;;;;;;;27.42;17.33;;;7.90;68.20;;;;;;5092574;28;20435;-67
2022/03/05 07:26:52;;;;;;;26.67;18.15;;;8.00;68.30;;;;;;5092611;28;20024;-60
2022/03/05 07:29:18;;;;;;;27.20;16.58;;;8.10;68.40;;;;;;5090179;28;20032;-68
2022/03/05 07:31:43;;;;;;;25.90;17.80;;;8.20;67.70;;;;;;5090204;28;20037;-63
2022/03/05 07:34:09;;;;;;;25.23;17.95;;;8.20;67.60;;;;;;5094113;28;20039;-65
2022/03/05 07:36:34;;;;;;;21.77;16.27;;;8.30;67.90;;;;;;5093603;28;20105;-64
2022/03/05 07:39:00;;;;;;;30.15;18.05;;;8.40;67.10;;;;;;5081111;28;20036;-61
2022/03/05 07:41:26;;;;;;;31.70;18.00;;;8.40;66.90;;;;;;5089600;28;20028;-60
2022/03/05 07:43:51;;;;;;;25.42;17.25;;;8.50;66.30;;;;;;5087162;28;20059;-61
2022/03/05 07:46:17;;;;;;;25.38;17.85;;;8.60;65.90;;;;;;5092347;28;20021;-60
2022/03/05 07:48:42;;;;;;;24.58;17.85;;;8.60;65.80;;;;;;5091600;28;20042;-61
2022/03/05 07:51:08;;;;;;;25.63;18.75;;;8.60;65.70;;;;;;5092122;28;20028;-60
2022/03/05 07:53:34;;;;;;;27.40;19.15;;;8.60;65.60;;;;;;5092985;28;20020;-63
2022/03/05 07:55:59;;;;;;;24.80;17.08;;;8.60;65.40;;;;;;5093414;28;20046;-61
2022/03/05 07:58:25;;;;;;;25.08;17.70;;;8.70;65.20;;;;;;5091186;28;20103;-61
2022/03/05 08:00:51;;;;;;;27.50;18.77;;;8.60;65.10;;;;;;5092013;28;20495;-61
2022/03/05 08:03:16;;;;;;;24.52;17.50;;;8.80;67.80;;;;;;5092657;28;20469;-61
2022/03/05 08:05:43;;;;;;;25.02;17.05;;;8.90;67.40;;;;;;5088718;28;20032;-60
2022/03/05 08:08:09;;;;;;;28.65;17.00;;;9.10;67.00;;;;;;5093434;28;20095;-71
2022/03/05 08:10:34;;;;;;;25.77;17.95;;;9.30;66.40;;;;;;5092550;28;20130;-61
2022/03/05 08:13:00;;;;;;;23.67;18.00;;;9.30;65.70;;;;;;5089931;28;20487;-63
2022/03/05 08:15:26;;;;;;;24.63;18.48;;;9.40;65.90;;;;;;5091885;28;20036;-62
2022/03/05 08:17:53;;;;;;;26.77;19.05;;;9.50;64.90;;;;;;5092632;28;20028;-64
2022/03/05 08:20:19;;;;;;;26.33;19.15;;;9.60;65.30;;;;;;5092529;28;20024;-66
2022/03/05 08:22:44;;;;;;;29.67;20.23;;;9.70;63.30;;;;;;5092314;28;20081;-64
2022/03/05 08:25:10;;;;;;;27.38;19.83;;;9.80;62.50;;;;;;5080511;28;20070;-62
2022/03/05 08:27:36;;;;;;;28.35;19.80;;;9.70;62.50;;;;;;5093491;28;20031;-61
2022/03/05 08:30:02;;;;;;;29.65;19.30;;;9.60;62.60;;;;;;5093363;28;20055;-60
2022/03/05 08:32:28;;;;;;;28.40;20.00;;;9.60;62.90;;;;;;5093006;28;20024;-64
2022/03/05 08:34:53;;;;;;;27.23;19.02;;;9.50;63.10;;;;;;5091124;28;20370;-71
2022/03/05 08:37:19;;;;;;;26.95;19.67;;;9.50;63.40;;;;;;5089507;28;20032;-65
2022/03/05 08:39:44;;;;;;;24.95;19.70;;;9.40;63.60;;;;;;5092252;28;20081;-63
2022/03/05 08:42:10;;;;;;;28.70;21.15;;;9.40;63.90;;;;;;5092738;28;20072;-61
2022/03/05 08:44:35;;;;;;;27.40;18.83;;;9.40;64.10;;;;;;5090132;28;20059;-62
2022/03/05 08:47:01;;;;;;;29.92;22.42;;;9.40;64.20;;;;;;5093633;28;20483;-69
2022/03/05 08:49:27;;;;;;;28.58;20.13;;;9.40;64.20;;;;;;5093241;28;20479;-74
2022/03/05 08:51:53;;;;;;;28.25;21.10;;;9.40;64.00;;;;;;5088583;28;20033;-60
2022/03/05 08:54:20;;;;;;;30.85;21.95;;;9.40;63.60;;;;;;5074730;28;20078;-66
2022/03/05 08:56:46;;;;;;;30.08;21.20;;;9.40;63.70;;;;;;5092321;28;20016;-67
2022/03/05 08:59:12;;;;;;;31.80;22.67;;;9.30;63.60;;;;;;5090087;28;20024;-63
2022/03/05 09:01:38;;;;;;;28.25;22.33;;;9.40;63.60;;;;;;5087512;28;20032;-65
2022/03/05 09:04:04;;;;;;;31.38;21.83;;;9.30;63.60;;;;;;5083964;28;20024;-69
2022/03/05 09:06:29;;;;;;;29.35;20.80;;;9.30;63.80;;;;;;5089204;28;20032;-71
2022/03/05 09:08:57;;;;;;;27.88;21.58;;;9.30;63.80;;;;;;5089412;28;20055;-63
2022/03/05 09:11:23;;;;;;;32.22;21.63;;;9.30;64.20;;;;;;5078163;28;20043;-67
2022/03/05 09:13:48;;;;;;;28.52;21.65;;;9.30;64.40;;;;;;5085066;28;20032;-63
2022/03/05 09:16:15;;;;;;;35.67;20.98;;;9.40;64.50;;;;;;5084630;28;20031;-60
2022/03/05 09:18:41;;;;;;;25.30;20.15;;;9.40;64.60;;;;;;5086967;28;20026;-61
2022/03/05 09:21:07;;;;;;;30.13;22.52;;;9.30;65.10;;;;;;5086955;28;20111;-65
2022/03/05 09:23:33;;;;;;;32.30;23.48;;;9.30;65.10;;;;;;5085311;28;21737;-66
2022/03/05 09:25:59;;;;;;;33.92;21.77;;;9.40;64.50;;;;;;5086606;28;20411;-64
2022/03/05 09:28:25;;;;;;;32.53;21.90;;;9.40;63.90;;;;;;5089343;28;20031;-62
2022/03/05 09:30:50;;;;;;;31.48;22.52;;;9.50;64.40;;;;;;5068644;28;20089;-62
2022/03/05 09:33:17;;;;;;;32.25;21.88;;;9.50;63.60;;;;;;5088120;28;20041;-66
2022/03/05 09:35:44;;;;;;;31.50;21.85;;;9.50;63.80;;;;;;5082906;28;20138;-61
2022/03/05 09:38:10;;;;;;;29.52;21.92;;;9.40;64.40;;;;;;5088434;28;20020;-73
2022/03/05 09:40:35;;;;;;;32.45;23.13;;;9.50;64.40;;;;;;5082085;28;20050;-60
2022/03/05 09:43:02;;;;;;;38.65;23.30;;;9.50;64.30;;;;;;5088111;28;20032;-59
2022/03/05 09:45:28;;;;;;;34.53;23.73;;;9.50;63.90;;;;;;5083068;28;20104;-65
2022/03/05 09:47:56;;;;;;;36.88;23.75;;;9.50;63.70;;;;;;5086491;28;20549;-61
2022/03/05 09:50:24;;;;;;;36.25;23.65;;;9.50;63.60;;;;;;5085093;28;20388;-69
2022/03/05 09:52:50;;;;;;;35.15;23.58;;;9.50;63.80;;;;;;5081583;28;20016;-61
2022/03/05 09:55:16;;;;;;;41.15;23.77;;;9.50;64.00;;;;;;5081650;28;20203;-61
2022/03/05 09:57:42;;;;;;;32.03;23.60;;;9.60;64.20;;;;;;5084911;28;20026;-70
2022/03/05 10:00:08;;;;;;;32.25;23.85;;;9.60;64.10;;;;;;5082212;28;20024;-62
2022/03/05 10:02:34;;;;;;;34.50;24.30;;;9.60;64.40;;;;;;5084672;28;20032;-64
2022/03/05 10:05:20;;;;;;;34.60;24.15;;;9.60;64.20;;;;;;5083261;28;20044;-65
2022/03/05 10:07:59;;;;;;;34.83;24.42;;;9.60;63.90;;;;;;5085624;28;20028;-69
2022/03/05 10:10:24;;;;;;;36.25;24.02;;;9.60;63.40;;;;;;5087003;28;20410;-63
2022/03/05 10:12:50;;;;;;;31.42;23.85;;;9.50;64.00;;;;;;5081791;28;20504;-61
2022/03/05 10:15:17;;;;;;;33.13;23.83;;;9.60;63.60;;;;;;5083323;28;20496;-63
2022/03/05 10:17:47;;;;;;;33.10;25.15;;;9.60;63.10;;;;;;5081287;28;20407;-60
2022/03/05 10:20:13;;;;;;;36.08;23.95;;;9.60;63.40;;;;;;5063231;28;20085;-72
2022/03/05 10:22:38;;;;;;;36.65;25.27;;;9.70;63.60;;;;;;5084199;28;20033;-69
2022/03/05 10:25:05;;;;;;;32.95;25.23;;;9.70;64.00;;;;;;5089089;28;20020;-71
2022/03/05 10:27:31;;;;;;;33.83;26.15;;;9.70;64.00;;;;;;5064504;28;20030;-70
2022/03/05 10:29:57;;;;;;;30.75;24.58;;;9.80;64.80;;;;;;5090014;28;20040;-74
2022/03/05 10:32:22;;;;;;;33.50;25.70;;;9.80;65.10;;;;;;5085186;28;20020;-72
2022/03/05 10:34:51;;;;;;;33.13;24.98;;;9.70;64.80;;;;;;5078357;28;20445;-70
2022/03/05 10:37:17;;;;;;;35.92;25.33;;;9.80;65.20;;;;;;5078641;28;20085;-70
2022/03/05 10:39:44;;;;;;;34.83;25.70;;;9.80;65.30;;;;;;5086005;28;20564;-72
2022/03/05 10:42:24;;;;;;;34.58;26.27;;;9.80;65.50;;;;;;5084842;28;20033;-67
2022/03/05 10:45:12;;;;;;;36.28;24.75;;;9.90;65.60;;;;;;5084760;28;20020;-68
2022/03/05 10:47:39;;;;;;;39.33;25.55;;;9.90;65.40;;;;;;5086502;28;20118;-72
2022/03/05 10:50:06;;;;;;;33.00;24.85;;;9.90;65.30;;;;;;5082283;28;20086;-71
2022/03/05 10:52:54;;;;;;;37.42;25.50;;;9.90;65.40;;;;;;5084026;28;20024;-70
2022/03/05 10:55:22;;;;;;;33.30;25.27;;;10.00;65.20;;;;;;5074287;28;20118;-69
2022/03/05 10:58:14;;;;;;;33.20;24.45;;;10.00;65.60;;;;;;5086515;28;20055;-72
2022/03/05 11:00:41;;;;;;;33.90;24.33;;;10.00;65.00;;;;;;5086207;28;20025;-71
2022/03/05 11:03:06;;;;;;;31.48;24.45;;;10.00;63.90;;;;;;5083693;28;20020;-59
2022/03/05 11:05:32;;;;;;;31.52;23.90;;;10.00;63.80;;;;;;5082927;28;20040;-69
2022/03/05 11:07:59;;;;;;;35.42;24.42;;;10.10;63.60;;;;;;5089718;28;20016;-60
2022/03/05 11:10:29;;;;;;;34.75;24.23;;;10.10;64.10;;;;;;5088288;28;20285;-64
2022/03/05 11:13:02;;;;;;;40.40;25.13;;;10.10;62.90;;;;;;5089361;28;20491;-62
2022/03/05 11:15:28;;;;;;;31.58;23.63;;;10.20;62.90;;;;;;5088123;28;20077;-61
2022/03/05 11:17:55;;;;;;;36.22;26.83;;;10.20;64.10;;;;;;5084093;28;20029;-60
2022/03/05 11:20:21;;;;;;;32.10;24.15;;;10.20;62.90;;;;;;5088004;28;20044;-59
2022/03/05 11:22:50;;;;;;;37.15;25.42;;;10.20;63.20;;;;;;5086199;28;20062;-60
2022/03/05 11:25:21;;;;;;;39.83;25.75;;;10.30;62.10;;;;;;5086598;28;20051;-59
2022/03/05 11:27:56;;;;;;;34.53;24.73;;;10.30;61.90;;;;;;5067437;28;20453;-63
2022/03/05 11:30:22;;;;;;;37.78;26.13;;;10.30;63.40;;;;;;5084813;28;20040;-64
2022/03/05 11:32:47;;;;;;;38.63;26.85;;;10.30;63.40;;;;;;5082870;28;20031;-61
2022/03/05 11:35:29;;;;;;;32.38;24.45;;;10.40;62.30;;;;;;5083011;28;20043;-60
2022/03/05 11:37:55;;;;;;;35.25;24.85;;;10.40;62.70;;;;;;5086267;28;20027;-59
2022/03/05 11:40:41;;;;;;;34.50;24.35;;;10.40;62.10;;;;;;5088006;28;20106;-61
2022/03/05 11:43:25;;;;;;;36.67;25.08;;;10.50;61.20;;;;;;5085176;28;21896;-62
2022/03/05 11:45:58;;;;;;;36.78;25.80;;;10.50;61.10;;;;;;5086390;28;20043;-66
2022/03/05 11:48:24;;;;;;;34.50;26.70;;;10.50;61.10;;;;;;5085015;28;20085;-62
2022/03/05 11:50:52;;;;;;;35.65;25.92;;;10.50;61.70;;;;;;5089660;28;20484;-74
2022/03/05 11:53:17;;;;;;;37.33;26.30;;;10.50;62.10;;;;;;5084210;28;20505;-69
2022/03/05 11:55:45;;;;;;;35.88;26.20;;;10.60;63.00;;;;;;5087791;28;20153;-71
2022/03/05 11:58:13;;;;;;;33.28;25.15;;;10.60;61.30;;;;;;5086497;28;20104;-72
2022/03/05 12:00:51;;;;;;;39.83;27.58;;;10.60;62.10;;;;;;5083360;28;20050;-71
2022/03/05 12:03:38;;;;;;;34.28;24.65;;;10.60;62.40;;;;;;5084527;28;20471;-62
2022/03/05 12:06:05;;;;;;;33.10;22.60;;;10.70;61.30;;;;;;5083346;28;20394;-62
2022/03/05 12:08:31;;;;;;;33.72;24.10;;;10.70;60.50;;;;;;5085087;28;20032;-66
2022/03/05 12:11:12;;;;;;;34.65;25.50;;;10.70;60.00;;;;;;5085416;28;20036;-60
2022/03/05 12:13:41;;;;;;;34.30;24.05;;;10.70;60.30;;;;;;5085494;28;20020;-63
2022/03/05 12:16:33;;;;;;;32.88;24.13;;;10.80;60.30;;;;;;5088422;28;20024;-66
2022/03/05 12:18:59;;;;;;;27.88;21.48;;;10.80;60.30;;;;;;5085380;28;20105;-65
2022/03/05 12:21:32;;;;;;;28.67;21.38;;;10.80;57.50;;;;;;5087905;28;20024;-60
2022/03/05 12:24:00;;;;;;;32.60;23.08;;;10.80;58.60;;;;;;5085179;28;20130;-61
2022/03/05 12:26:37;;;;;;;26.38;21.30;;;10.90;57.80;;;;;;5086663;28;20020;-65
2022/03/05 12:29:05;;;;;;;30.52;21.90;;;11.00;59.20;;;;;;5087232;28;20020;-61
2022/03/05 12:31:31;;;;;;;31.17;21.50;;;11.00;58.30;;;;;;5087543;28;20074;-64
2022/03/05 12:33:56;;;;;;;25.92;19.92;;;11.00;56.60;;;;;;5081071;28;20056;-65